Time;durP1;ratioP1;P1;durP2;ratioP2;P2;SDS_P1;SDS_P2;PMS_P1;PMS_P2;Temp;Humidity;BMP_temperature;BMP_pressure;BME280_temperature;BME280_humidity;BME280_pressure;Samples;Min_cycle;Max_cycle;Signal;HPM_P1;HPM_P2
2021/04/10 00:00:30;;;;;;;1.45;1.00;;;9.50;97.70;;;;;;4413632;32;20521;-76
2021/04/10 00:02:56;;;;;;;0.55;0.55;;;9.50;97.90;;;;;;4413096;32;20450;-76
2021/04/10 00:05:23;;;;;;;1.00;0.90;;;9.50;97.80;;;;;;4412697;32;20121;-76
2021/04/10 00:07:49;;;;;;;9.23;1.77;;;9.60;97.70;;;;;;4412934;32;20061;-76
2021/04/10 00:10:15;;;;;;;1.25;0.98;;;9.50;97.80;;;;;;4412722;32;20562;-76
2021/04/10 00:12:41;;;;;;;1.45;0.50;;;9.40;98.00;;;;;;4412857;32;20073;-76
2021/04/10 00:15:11;;;;;;;2.12;1.20;;;9.20;98.40;;;;;;4412787;32;20128;-76
2021/04/10 00:17:36;;;;;;;0.90;0.82;;;9.30;98.50;;;;;;4412997;32;20577;-77
2021/04/10 00:20:06;;;;;;;0.90;0.52;;;9.20;99.20;;;;;;4413037;32;20077;-76
2021/04/10 00:22:32;;;;;;;1.15;1.08;;;9.10;99.00;;;;;;4414503;32;20062;-76
2021/04/10 00:24:57;;;;;;;1.33;0.90;;;9.00;99.20;;;;;;4412837;32;20065;-76
2021/04/10 00:27:23;;;;;;;2.05;1.08;;;9.10;99.70;;;;;;4413797;32;20082;-76
2021/04/10 00:29:48;;;;;;;1.23;1.00;;;9.00;99.90;;;;;;4413470;32;20085;-76
2021/04/10 00:32:14;;;;;;;0.52;0.52;;;8.80;99.90;;;;;;4414121;32;20409;-76
2021/04/10 00:34:39;;;;;;;1.30;0.70;;;8.70;99.90;;;;;;4413830;32;20074;-76
2021/04/10 00:37:04;;;;;;;0.77;0.70;;;8.50;99.90;;;;;;4413267;32;20069;-77
2021/04/10 00:39:30;;;;;;;1.30;1.00;;;8.50;99.90;;;;;;4412464;32;20082;-77
2021/04/10 00:41:55;;;;;;;0.68;0.68;;;8.40;99.90;;;;;;4412616;32;20117;-77
2021/04/10 00:44:22;;;;;;;5.25;1.00;;;8.30;99.90;;;;;;4413955;32;20069;-77
2021/04/10 00:46:47;;;;;;;0.55;0.55;;;8.40;99.90;;;;;;4412041;32;20128;-76
2021/04/10 00:49:13;;;;;;;0.70;0.70;;;8.40;99.90;;;;;;4412200;32;20129;-76
2021/04/10 00:51:38;;;;;;;0.73;0.73;;;8.30;99.90;;;;;;4423313;32;20077;-77
2021/04/10 00:54:04;;;;;;;0.32;0.32;;;8.30;99.90;;;;;;4427317;32;20081;-77
2021/04/10 00:56:30;;;;;;;0.62;0.60;;;8.20;99.90;;;;;;4429003;32;20061;-77
2021/04/10 00:58:55;;;;;;;0.45;0.45;;;8.30;99.90;;;;;;4427779;32;20065;-77
2021/04/10 01:01:21;;;;;;;0.93;0.70;;;8.20;99.90;;;;;;4428998;32;20073;-77
2021/04/10 01:03:47;;;;;;;1.58;1.08;;;8.10;99.90;;;;;;4428438;32;20108;-77
2021/04/10 01:06:12;;;;;;;0.57;0.57;;;8.00;99.90;;;;;;4426723;32;20601;-77
2021/04/10 01:08:38;;;;;;;0.88;0.88;;;8.00;99.90;;;;;;4427594;32;20073;-77
2021/04/10 01:11:37;;;;;;;0.82;0.70;;;8.00;99.90;;;;;;4419048;32;20069;-76
2021/04/10 01:14:14;;;;;;;0.95;0.95;;;7.90;99.90;;;;;;4404464;32;20081;-77
2021/04/10 01:16:49;;;;;;;2.72;1.35;;;7.90;99.90;;;;;;4414820;32;20086;-77
2021/04/10 01:19:54;;;;;;;5.37;0.80;;;8.10;99.90;;;;;;4416054;32;20169;-76
2021/04/10 01:22:44;;;;;;;1.10;0.75;;;8.10;99.90;;;;;;4397151;32;20503;-77
2021/04/10 01:25:16;;;;;;;1.17;0.85;;;8.20;99.90;;;;;;4404933;32;20082;-77
2021/04/10 01:27:47;;;;;;;1.48;0.70;;;8.10;99.90;;;;;;4415576;32;20057;-77
2021/04/10 01:30:18;;;;;;;4.03;1.02;;;8.00;99.90;;;;;;4415165;32;20106;-77
2021/04/10 01:32:57;;;;;;;9.90;1.05;;;7.90;99.90;;;;;;4415505;32;20071;-77
2021/04/10 01:35:25;;;;;;;5.28;1.00;;;7.80;99.90;;;;;;4414670;32;20069;-76
2021/04/10 01:38:13;;;;;;;0.90;0.90;;;7.60;99.90;;;;;;4416158;32;20062;-77
2021/04/10 01:40:40;;;;;;;0.60;0.60;;;7.50;99.90;;;;;;4403714;32;20549;-77
2021/04/10 01:43:07;;;;;;;1.12;0.70;;;7.60;99.90;;;;;;4414734;32;20057;-76
2021/04/10 01:45:32;;;;;;;0.98;0.75;;;7.70;99.90;;;;;;4414987;32;20094;-77
2021/04/10 01:48:04;;;;;;;0.40;0.40;;;7.60;99.90;;;;;;4415035;32;20439;-76
2021/04/10 01:50:30;;;;;;;0.40;0.40;;;7.70;99.90;;;;;;4415848;32;20545;-77
2021/04/10 01:52:56;;;;;;;2.58;1.33;;;7.60;99.90;;;;;;4415053;32;20493;-77
2021/04/10 01:55:24;;;;;;;0.55;0.55;;;7.50;99.90;;;;;;4415423;32;20133;-77
2021/04/10 01:57:50;;;;;;;0.68;0.68;;;7.40;99.90;;;;;;4415814;32;20078;-77
2021/04/10 02:00:18;;;;;;;1.90;0.88;;;7.40;99.90;;;;;;4415606;32;20494;-77
2021/04/10 02:02:44;;;;;;;26.50;1.00;;;7.60;99.90;;;;;;4415545;32;20423;-77
2021/04/10 02:05:13;;;;;;;0.95;0.93;;;7.50;99.90;;;;;;4413927;32;20074;-77
2021/04/10 02:07:42;;;;;;;1.85;1.33;;;7.50;99.90;;;;;;4414798;32;20066;-77
2021/04/10 02:10:09;;;;;;;1.05;0.95;;;7.50;99.90;;;;;;4418443;32;20069;-76
2021/04/10 02:12:35;;;;;;;0.93;0.93;;;7.50;99.90;;;;;;4430277;32;20505;-77
2021/04/10 02:15:04;;;;;;;1.55;0.73;;;7.60;99.90;;;;;;4429435;32;20062;-77
2021/04/10 02:17:29;;;;;;;0.77;0.77;;;7.70;99.90;;;;;;4429661;32;20365;-77
2021/04/10 02:19:55;;;;;;;0.80;0.80;;;7.70;99.90;;;;;;4429521;32;20068;-77
2021/04/10 02:22:22;;;;;;;0.43;0.43;;;7.50;99.90;;;;;;4429858;32;20060;-76
2021/04/10 02:24:48;;;;;;;0.80;0.80;;;7.40;99.90;;;;;;4429517;32;20116;-76
2021/04/10 02:27:14;;;;;;;0.70;0.70;;;7.30;99.90;;;;;;4430955;32;20070;-76
2021/04/10 02:29:41;;;;;;;0.62;0.50;;;7.20;99.90;;;;;;4430148;32;20082;-76
2021/04/10 02:32:10;;;;;;;3.20;1.33;;;7.30;99.90;;;;;;4430614;32;20057;-76
2021/04/10 02:34:46;;;;;;;1.17;0.70;;;7.50;99.90;;;;;;4428796;32;20608;-76
2021/04/10 02:37:11;;;;;;;4.78;1.90;;;7.60;99.90;;;;;;4429177;32;20465;-76
2021/04/10 02:39:40;;;;;;;0.50;0.50;;;7.60;99.90;;;;;;4429131;32;20089;-76
2021/04/10 02:42:08;;;;;;;0.88;0.88;;;7.50;99.90;;;;;;4430789;32;20069;-76
2021/04/10 02:44:40;;;;;;;1.05;1.05;;;7.50;99.90;;;;;;4429127;32;20127;-76
2021/04/10 02:47:08;;;;;;;0.70;0.70;;;7.50;99.90;;;;;;4429239;32;20565;-76
2021/04/10 02:49:39;;;;;;;0.90;0.90;;;7.60;99.90;;;;;;4429123;32;20066;-76
2021/04/10 02:52:06;;;;;;;0.40;0.40;;;7.70;99.90;;;;;;4429149;32;20124;-76
2021/04/10 02:54:36;;;;;;;0.70;0.70;;;7.80;99.90;;;;;;4428620;32;20081;-76
2021/04/10 02:57:19;;;;;;;0.50;0.50;;;7.90;99.90;;;;;;4428550;32;20482;-76
2021/04/10 02:59:48;;;;;;;0.40;0.40;;;7.80;99.90;;;;;;4430261;32;20151;-76
2021/04/10 03:02:15;;;;;;;0.47;0.47;;;7.70;99.90;;;;;;4429080;32;20085;-76
2021/04/10 03:04:42;;;;;;;1.05;0.95;;;7.80;99.90;;;;;;4430041;32;20384;-76
2021/04/10 03:07:10;;;;;;;0.47;0.47;;;7.90;99.90;;;;;;4429993;32;20054;-76
2021/04/10 03:09:39;;;;;;;0.57;0.57;;;7.90;99.90;;;;;;4428756;32;20077;-76
2021/04/10 03:12:05;;;;;;;0.40;0.40;;;7.90;99.90;;;;;;4413238;32;20078;-76
2021/04/10 03:14:31;;;;;;;0.57;0.43;;;8.00;99.90;;;;;;4415043;32;20074;-76
2021/04/10 03:16:58;;;;;;;1.95;1.33;;;8.00;99.90;;;;;;4413245;32;20129;-76
2021/04/10 03:19:24;;;;;;;0.50;0.50;;;8.00;99.90;;;;;;4413736;32;20143;-76
2021/04/10 03:21:50;;;;;;;1.05;1.02;;;7.90;99.90;;;;;;4415423;32;20057;-76
2021/04/10 03:24:16;;;;;;;1.40;0.82;;;7.90;99.90;;;;;;4413341;32;20069;-76
2021/04/10 03:26:42;;;;;;;0.80;0.80;;;7.90;99.90;;;;;;4413582;32;20082;-76
2021/04/10 03:29:08;;;;;;;7.55;1.42;;;7.90;99.90;;;;;;4414621;32;20082;-76
2021/04/10 03:31:34;;;;;;;1.35;0.98;;;8.00;99.90;;;;;;4413886;32;20069;-76
2021/04/10 03:34:00;;;;;;;0.50;0.45;;;8.10;99.90;;;;;;4412630;32;20065;-76
2021/04/10 03:36:26;;;;;;;1.05;0.70;;;8.20;99.90;;;;;;4412667;32;20510;-76
2021/04/10 03:38:52;;;;;;;0.50;0.50;;;8.20;99.90;;;;;;4413918;32;20066;-77
2021/04/10 03:41:18;;;;;;;1.17;1.08;;;8.30;99.90;;;;;;4413599;32;20439;-76
2021/04/10 03:43:43;;;;;;;0.60;0.60;;;8.20;99.90;;;;;;4413662;32;20076;-76
2021/04/10 03:46:09;;;;;;;0.73;0.73;;;8.30;99.90;;;;;;4414084;32;20069;-76
2021/04/10 03:48:34;;;;;;;1.23;0.57;;;8.20;99.90;;;;;;4414069;32;20391;-76
2021/04/10 03:51:00;;;;;;;0.62;0.62;;;8.10;99.90;;;;;;4413572;32;20082;-76
2021/04/10 03:53:26;;;;;;;0.52;0.52;;;8.10;99.90;;;;;;4412561;32;20127;-76
2021/04/10 03:55:51;;;;;;;0.52;0.52;;;8.10;99.90;;;;;;4412856;32;20155;-76
2021/04/10 03:58:17;;;;;;;0.62;0.62;;;8.00;99.90;;;;;;4413185;32;20482;-76
2021/04/10 04:00:43;;;;;;;1.55;0.80;;;8.00;99.90;;;;;;4414537;32;20086;-77
2021/04/10 04:03:08;;;;;;;0.50;0.50;;;8.10;99.90;;;;;;4414148;32;20065;-77
2021/04/10 04:05:34;;;;;;;0.43;0.43;;;8.10;99.90;;;;;;4412349;32;20082;-77
2021/04/10 04:07:59;;;;;;;0.60;0.60;;;8.10;99.90;;;;;;4414135;32;20125;-77
2021/04/10 04:10:25;;;;;;;0.30;0.30;;;8.10;99.90;;;;;;4419906;32;20070;-77
2021/04/10 04:12:50;;;;;;;0.55;0.55;;;8.10;99.90;;;;;;4428210;32;20740;-77
2021/04/10 04:15:16;;;;;;;1.75;1.00;;;8.10;99.90;;;;;;4428444;32;20123;-77
2021/04/10 04:17:42;;;;;;;0.60;0.60;;;8.10;99.90;;;;;;4429461;32;20082;-77
2021/04/10 04:20:08;;;;;;;2.12;0.80;;;8.10;99.90;;;;;;4428307;32;20087;-77
2021/04/10 04:22:33;;;;;;;0.40;0.40;;;8.10;99.90;;;;;;4429723;32;20060;-76
2021/04/10 04:24:59;;;;;;;0.50;0.47;;;8.10;99.90;;;;;;4429148;32;20530;-77
2021/04/10 04:27:24;;;;;;;0.43;0.43;;;8.10;99.90;;;;;;4427774;32;20065;-77
2021/04/10 04:29:53;;;;;;;0.62;0.60;;;7.80;99.90;;;;;;4429536;32;20064;-76
2021/04/10 04:32:20;;;;;;;1.05;0.57;;;7.70;99.90;;;;;;4428758;32;20072;-77
2021/04/10 04:34:46;;;;;;;0.75;0.57;;;7.80;99.90;;;;;;4427352;32;20117;-77
2021/04/10 04:37:11;;;;;;;0.50;0.50;;;7.70;99.90;;;;;;4428399;32;20081;-78
2021/04/10 04:39:37;;;;;;;0.68;0.68;;;7.80;99.90;;;;;;4428216;32;20085;-77
2021/04/10 04:42:02;;;;;;;0.43;0.43;;;7.90;99.90;;;;;;4428027;32;20155;-77
2021/04/10 04:44:28;;;;;;;5.93;1.40;;;8.00;99.90;;;;;;4428001;32;20129;-77
2021/04/10 04:46:54;;;;;;;0.50;0.50;;;7.90;99.90;;;;;;4428134;32;20081;-77
2021/04/10 04:49:20;;;;;;;0.70;0.70;;;7.70;99.90;;;;;;4427851;32;20069;-77
2021/04/10 04:51:45;;;;;;;0.60;0.60;;;7.60;99.90;;;;;;4427386;32;20077;-77
2021/04/10 04:54:11;;;;;;;0.93;0.70;;;7.70;99.90;;;;;;4427435;32;20069;-76
2021/04/10 04:56:36;;;;;;;0.60;0.60;;;7.80;99.90;;;;;;4427457;32;20082;-77
2021/04/10 04:59:02;;;;;;;0.50;0.50;;;7.90;99.90;;;;;;4427997;32;20077;-77
2021/04/10 05:01:28;;;;;;;0.70;0.70;;;7.90;99.90;;;;;;4428380;32;20076;-77
2021/04/10 05:03:53;;;;;;;2.22;1.83;;;7.80;99.90;;;;;;4428059;32;20089;-77
2021/04/10 05:06:19;;;;;;;0.47;0.47;;;7.60;99.90;;;;;;4427366;32;20061;-77
2021/04/10 05:08:44;;;;;;;0.40;0.40;;;7.50;99.90;;;;;;4428046;32;20124;-77
2021/04/10 05:11:10;;;;;;;0.68;0.68;;;7.50;99.90;;;;;;4417424;32;20065;-77
2021/04/10 05:13:35;;;;;;;0.37;0.37;;;7.60;99.90;;;;;;4413290;32;20074;-77
2021/04/10 05:16:01;;;;;;;1.08;0.73;;;7.60;99.90;;;;;;4412781;32;20074;-77
2021/04/10 05:18:26;;;;;;;0.68;0.68;;;7.60;99.90;;;;;;4412662;32;20086;-77
2021/04/10 05:20:52;;;;;;;1.27;1.17;;;7.60;99.90;;;;;;4413255;32;20136;-77
2021/04/10 05:23:20;;;;;;;0.43;0.43;;;7.60;99.90;;;;;;4412014;32;20565;-77
2021/04/10 05:25:46;;;;;;;4.15;1.85;;;7.70;99.90;;;;;;4412723;32;20079;-77
2021/04/10 05:28:11;;;;;;;3.42;1.85;;;7.60;99.90;;;;;;4412667;32;20058;-77
2021/04/10 05:30:37;;;;;;;1.35;0.70;;;7.60;99.90;;;;;;4412671;32;20493;-77
2021/04/10 05:33:02;;;;;;;1.58;1.02;;;7.50;99.90;;;;;;4413441;32;20061;-77
2021/04/10 05:35:28;;;;;;;1.23;1.05;;;7.50;99.90;;;;;;4412026;32;20081;-77
2021/04/10 05:37:53;;;;;;;0.60;0.60;;;7.60;99.90;;;;;;4413054;32;20146;-77
2021/04/10 05:40:19;;;;;;;0.43;0.43;;;7.70;99.90;;;;;;4412124;32;20066;-77
2021/04/10 05:42:44;;;;;;;0.47;0.47;;;7.60;99.90;;;;;;4412563;32;20469;-77
2021/04/10 05:45:11;;;;;;;0.50;0.50;;;7.60;99.90;;;;;;4413556;32;20077;-77
2021/04/10 05:47:36;;;;;;;0.52;0.52;;;7.50;99.90;;;;;;4412202;32;20070;-77
2021/04/10 05:50:03;;;;;;;1.02;0.70;;;7.40;99.90;;;;;;4412220;32;20093;-77
2021/04/10 05:52:28;;;;;;;0.90;0.68;;;7.50;99.90;;;;;;4412135;32;20113;-77
2021/04/10 05:54:54;;;;;;;0.45;0.45;;;7.60;99.90;;;;;;4411256;32;20074;-77
2021/04/10 05:57:20;;;;;;;0.70;0.70;;;7.80;99.90;;;;;;4414690;32;20409;-77
2021/04/10 05:59:45;;;;;;;0.75;0.70;;;7.80;99.90;;;;;;4415086;32;20132;-77
2021/04/10 06:02:11;;;;;;;0.82;0.82;;;7.80;99.90;;;;;;4416093;32;20133;-77
2021/04/10 06:04:37;;;;;;;0.52;0.45;;;7.80;99.90;;;;;;4415592;32;20090;-77
2021/04/10 06:07:03;;;;;;;2.45;0.95;;;7.70;99.90;;;;;;4414888;32;20425;-77
2021/04/10 06:09:29;;;;;;;10.30;0.80;;;7.60;99.90;;;;;;4414233;32;20456;-76
2021/04/10 06:11:54;;;;;;;0.70;0.70;;;7.60;99.90;;;;;;4430093;32;20073;-77
2021/04/10 06:14:20;;;;;;;0.30;0.30;;;7.70;99.90;;;;;;4431169;32;20069;-77
2021/04/10 06:16:47;;;;;;;0.40;0.40;;;7.80;99.90;;;;;;4429582;32;20407;-77
2021/04/10 06:19:13;;;;;;;0.37;0.37;;;7.80;99.90;;;;;;4431388;32;20070;-77
2021/04/10 06:21:39;;;;;;;0.43;0.43;;;7.80;99.90;;;;;;4430432;32;20057;-77
2021/04/10 06:24:05;;;;;;;0.40;0.40;;;7.90;99.90;;;;;;4430649;32;20435;-77
2021/04/10 06:26:30;;;;;;;0.47;0.47;;;7.80;99.90;;;;;;4431469;32;20074;-77
2021/04/10 06:28:56;;;;;;;0.52;0.52;;;7.80;99.90;;;;;;4429906;32;20139;-76
2021/04/10 06:31:21;;;;;;;0.28;0.28;;;7.70;99.90;;;;;;4430474;32;20065;-77
2021/04/10 06:33:47;;;;;;;3.30;0.93;;;7.80;99.90;;;;;;4430917;32;20258;-76
2021/04/10 06:36:12;;;;;;;0.40;0.40;;;7.80;99.90;;;;;;4428873;32;20097;-76
2021/04/10 06:38:38;;;;;;;0.50;0.50;;;7.70;99.90;;;;;;4430230;32;20065;-77
2021/04/10 06:41:04;;;;;;;1.25;1.05;;;7.70;99.90;;;;;;4431870;32;20089;-77
2021/04/10 06:43:30;;;;;;;0.62;0.60;;;7.80;99.90;;;;;;4429423;32;20073;-77
2021/04/10 06:45:58;;;;;;;0.50;0.50;;;7.80;99.90;;;;;;4430777;32;20554;-77
2021/04/10 06:48:25;;;;;;;0.30;0.30;;;7.80;99.90;;;;;;4430556;32;20065;-77
2021/04/10 06:50:52;;;;;;;0.50;0.50;;;7.80;99.90;;;;;;4430644;32;20078;-77
2021/04/10 06:53:18;;;;;;;3.12;0.93;;;7.80;99.90;;;;;;4429035;32;20479;-77
2021/04/10 06:55:48;;;;;;;0.55;0.55;;;7.80;99.90;;;;;;4429135;32;20541;-77
2021/04/10 06:58:21;;;;;;;1.10;1.00;;;7.80;99.90;;;;;;4429607;32;20069;-77
2021/04/10 07:00:52;;;;;;;0.40;0.40;;;7.80;99.90;;;;;;4430892;32;20061;-77
2021/04/10 07:03:18;;;;;;;1.02;0.70;;;7.80;99.90;;;;;;4429549;32;20553;-76
2021/04/10 07:05:44;;;;;;;1.55;0.70;;;7.80;99.90;;;;;;4428985;32;20061;-76
2021/04/10 07:08:09;;;;;;;0.75;0.70;;;7.90;99.90;;;;;;4429111;32;20058;-77
2021/04/10 07:10:35;;;;;;;0.45;0.45;;;7.90;99.90;;;;;;4421910;32;20066;-76
2021/04/10 07:13:01;;;;;;;0.45;0.45;;;7.90;99.90;;;;;;4415115;32;20506;-76
2021/04/10 07:15:27;;;;;;;0.47;0.47;;;7.90;99.90;;;;;;4413928;32;20416;-77
2021/04/10 07:17:54;;;;;;;0.40;0.40;;;8.00;99.90;;;;;;4414261;32;20094;-77
2021/04/10 07:20:26;;;;;;;0.32;0.32;;;7.90;99.90;;;;;;4413766;32;20086;-77
2021/04/10 07:23:02;;;;;;;0.88;0.85;;;7.90;99.90;;;;;;4413154;32;20126;-77
2021/04/10 07:25:30;;;;;;;0.60;0.50;;;7.90;99.90;;;;;;4414343;32;20066;-77
2021/04/10 07:28:20;;;;;;;0.35;0.35;;;7.80;99.90;;;;;;4414020;32;20083;-78
2021/04/10 07:31:04;;;;;;;0.45;0.45;;;7.80;99.90;;;;;;4402762;32;20096;-77
2021/04/10 07:33:33;;;;;;;0.40;0.40;;;7.80;99.90;;;;;;4413333;32;20090;-77
2021/04/10 07:36:01;;;;;;;1.87;0.70;;;7.90;99.90;;;;;;4414160;32;20083;-77
2021/04/10 07:38:36;;;;;;;1.65;1.37;;;8.00;99.90;;;;;;4412895;32;20519;-77
2021/04/10 07:41:04;;;;;;;0.52;0.52;;;8.00;99.90;;;;;;4413716;32;20078;-77
2021/04/10 07:43:36;;;;;;;0.50;0.50;;;7.90;99.90;;;;;;4413093;32;20090;-77
2021/04/10 07:46:23;;;;;;;0.52;0.52;;;7.90;99.90;;;;;;4413494;32;20113;-77
2021/04/10 07:49:09;;;;;;;0.30;0.30;;;8.00;99.90;;;;;;4402309;32;20086;-77
2021/04/10 07:51:38;;;;;;;0.50;0.50;;;7.90;99.90;;;;;;4401541;32;20070;-76
2021/04/10 07:54:21;;;;;;;1.75;1.05;;;7.90;99.90;;;;;;4414115;32;20141;-77
2021/04/10 07:56:58;;;;;;;8.27;1.15;;;7.80;99.90;;;;;;4413775;32;20169;-77
2021/04/10 07:59:25;;;;;;;3.30;0.75;;;7.90;99.90;;;;;;4413291;32;20074;-77
2021/04/10 08:01:51;;;;;;;1.62;0.90;;;8.10;99.90;;;;;;4415000;32;20070;-78
2021/04/10 08:04:18;;;;;;;0.95;0.85;;;8.10;99.90;;;;;;4413359;32;20073;-76
2021/04/10 08:07:00;;;;;;;0.52;0.52;;;7.90;99.90;;;;;;4413186;32;20132;-77
2021/04/10 08:09:30;;;;;;;0.45;0.45;;;8.10;99.90;;;;;;4413777;32;20079;-78
2021/04/10 08:11:56;;;;;;;;;;;8.10;99.90;;;;;;4414634;32;20094;-78
2021/04/10 08:14:22;;;;;;;0.50;0.50;;;8.10;99.90;;;;;;4414675;32;19949;-78
2021/04/10 08:16:50;;;;;;;0.40;0.40;;;8.10;99.90;;;;;;4413883;32;20057;-78
2021/04/10 08:19:17;;;;;;;1.85;1.25;;;8.00;99.90;;;;;;4413020;32;20084;-78
2021/04/10 08:21:49;;;;;;;0.40;0.40;;;8.00;99.90;;;;;;4415033;32;20121;-78
2021/04/10 08:24:25;;;;;;;0.57;0.57;;;8.00;99.90;;;;;;4413437;32;20136;-78
2021/04/10 08:26:54;;;;;;;1.30;0.93;;;8.10;99.90;;;;;;4413120;32;20072;-76
2021/04/10 08:29:21;;;;;;;0.82;0.65;;;8.10;99.90;;;;;;4413993;32;20069;-77
2021/04/10 08:31:47;;;;;;;0.47;0.47;;;8.10;99.90;;;;;;4413608;32;20086;-77
2021/04/10 08:34:13;;;;;;;2.70;1.00;;;8.10;99.90;;;;;;4413873;32;20078;-77
2021/04/10 08:36:40;;;;;;;0.62;0.62;;;8.10;99.90;;;;;;4412806;32;20068;-76
2021/04/10 08:39:10;;;;;;;1.87;1.50;;;8.10;99.90;;;;;;4414099;32;20097;-76
2021/04/10 08:41:36;;;;;;;1.87;1.08;;;8.10;99.90;;;;;;4413290;32;20156;-77
2021/04/10 08:44:03;;;;;;;0.40;0.40;;;8.10;99.90;;;;;;4413568;32;20117;-77
2021/04/10 08:46:31;;;;;;;0.40;0.40;;;8.00;99.90;;;;;;4414157;32;20073;-77
2021/04/10 08:48:59;;;;;;;0.40;0.40;;;8.10;99.90;;;;;;4413282;32;20081;-77
2021/04/10 08:51:28;;;;;;;0.70;0.70;;;8.20;99.90;;;;;;4413185;32;20090;-78
2021/04/10 08:53:57;;;;;;;1.00;0.88;;;8.20;99.90;;;;;;4413429;32;20082;-78
2021/04/10 08:56:26;;;;;;;0.50;0.50;;;8.30;99.90;;;;;;4413519;32;20073;-78
2021/04/10 08:58:51;;;;;;;2.35;1.12;;;8.30;99.90;;;;;;4414832;32;20065;-77
2021/04/10 09:01:23;;;;;;;2.22;1.65;;;8.30;99.90;;;;;;4413120;32;20086;-77
2021/04/10 09:03:51;;;;;;;0.55;0.50;;;8.30;99.90;;;;;;4413539;32;20079;-78
2021/04/10 09:06:38;;;;;;;0.30;0.30;;;8.40;99.90;;;;;;4412034;32;20061;-77
2021/04/10 09:09:13;;;;;;;0.60;0.60;;;8.40;99.90;;;;;;4403037;32;20421;-78
2021/04/10 09:11:42;;;;;;;0.30;0.30;;;8.60;99.90;;;;;;4410740;32;20079;-77
2021/04/10 09:14:07;;;;;;;0.57;0.57;;;8.60;99.90;;;;;;4413422;32;20086;-77
2021/04/10 09:16:39;;;;;;;0.40;0.40;;;8.70;99.90;;;;;;4413678;32;20479;-77
2021/04/10 09:19:15;;;;;;;0.40;0.40;;;8.90;99.90;;;;;;4414085;32;20082;-77
2021/04/10 09:21:46;;;;;;;7.68;0.85;;;9.00;99.90;;;;;;4413110;32;20135;-77
2021/04/10 09:24:22;;;;;;;3.83;1.17;;;9.10;99.90;;;;;;4413676;32;20078;-76
2021/04/10 09:26:56;;;;;;;3.72;1.30;;;9.00;99.90;;;;;;4412957;32;20132;-76
2021/04/10 09:29:22;;;;;;;0.30;0.30;;;9.10;99.90;;;;;;4413268;32;20515;-76
2021/04/10 09:31:54;;;;;;;2.45;0.90;;;9.30;99.90;;;;;;4414116;32;20125;-76
2021/04/10 09:34:45;;;;;;;0.37;0.37;;;9.40;99.90;;;;;;4415409;32;20104;-75
2021/04/10 09:37:32;;;;;;;0.40;0.40;;;9.50;99.90;;;;;;4414375;32;20066;-76
2021/04/10 09:40:03;;;;;;;0.35;0.35;;;9.50;99.90;;;;;;4413149;32;73128;-76
2021/04/10 09:45:15;;;;;;;0.43;0.43;;;9.50;99.90;;;;;;4415166;32;20566;-76
2021/04/10 09:48:01;;;;;;;3.75;0.70;;;9.50;99.90;;;;;;4414479;32;20469;-77
2021/04/10 09:50:29;;;;;;;0.95;0.60;;;9.50;99.90;;;;;;4401410;32;20058;-75
2021/04/10 09:53:02;;;;;;;1.35;0.95;;;9.60;99.90;;;;;;4401224;32;20145;-77
2021/04/10 09:55:30;;;;;;;5.40;0.70;;;9.50;99.90;;;;;;4415556;32;20077;-76
2021/04/10 09:57:59;;;;;;;0.32;0.32;;;9.60;99.90;;;;;;4416112;32;20502;-75
2021/04/10 10:00:28;;;;;;;1.02;0.70;;;9.60;99.90;;;;;;4416272;32;20094;-77
2021/04/10 10:02:54;;;;;;;0.95;0.50;;;9.60;99.90;;;;;;4415860;32;20078;-76
2021/04/10 10:05:21;;;;;;;0.85;0.60;;;9.80;99.90;;;;;;4415014;32;20090;-76
2021/04/10 10:07:47;;;;;;;0.77;0.77;;;9.80;99.90;;;;;;4415051;32;20073;-76
2021/04/10 10:10:13;;;;;;;0.55;0.55;;;10.00;99.90;;;;;;4419396;32;20132;-75
2021/04/10 10:12:41;;;;;;;0.70;0.55;;;10.10;99.90;;;;;;4431593;32;20057;-76
2021/04/10 10:15:23;;;;;;;0.37;0.37;;;10.30;99.90;;;;;;4430352;32;20061;-76
2021/04/10 10:17:49;;;;;;;0.75;0.75;;;10.10;99.90;;;;;;4430386;32;20062;-76
2021/04/10 10:20:16;;;;;;;0.47;0.43;;;10.10;99.90;;;;;;4430575;32;20094;-76
2021/04/10 10:22:42;;;;;;;1.90;1.05;;;10.20;99.90;;;;;;4432004;32;20088;-76
2021/04/10 10:25:10;;;;;;;2.42;1.02;;;10.40;99.90;;;;;;4430930;32;20073;-76
2021/04/10 10:27:38;;;;;;;0.60;0.50;;;10.40;99.90;;;;;;4431375;32;20148;-76
2021/04/10 10:30:17;;;;;;;0.60;0.60;;;10.40;99.90;;;;;;4430529;32;20065;-76
2021/04/10 10:32:45;;;;;;;0.52;0.52;;;10.40;99.90;;;;;;4431558;32;20246;-77
2021/04/10 10:35:15;;;;;;;1.02;0.82;;;10.20;99.90;;;;;;4431271;32;20065;-77
2021/04/10 10:37:46;;;;;;;0.65;0.65;;;10.20;99.90;;;;;;4430659;32;20136;-76
2021/04/10 10:40:20;;;;;;;1.55;0.65;;;10.10;99.90;;;;;;4430160;32;20150;-76
2021/04/10 10:43:05;;;;;;;0.85;0.60;;;10.00;99.90;;;;;;4430299;32;20062;-75
2021/04/10 10:45:51;;;;;;;0.30;0.30;;;9.90;99.90;;;;;;4430055;32;20193;-76
2021/04/10 10:48:28;;;;;;;0.50;0.50;;;9.80;99.90;;;;;;4430686;32;20138;-77
2021/04/10 10:51:00;;;;;;;0.70;0.70;;;9.80;99.90;;;;;;4430128;32;20136;-77
2021/04/10 10:53:30;;;;;;;2.92;0.73;;;9.90;99.90;;;;;;4429769;32;20058;-76
2021/04/10 10:56:05;;;;;;;0.80;0.70;;;9.90;99.90;;;;;;4429969;32;20464;-77
2021/04/10 10:58:36;;;;;;;1.85;0.88;;;9.90;99.90;;;;;;4429513;32;20509;-76
2021/04/10 11:01:11;;;;;;;0.70;0.70;;;9.90;99.90;;;;;;4430270;32;20053;-76
2021/04/10 11:03:37;;;;;;;1.83;0.98;;;9.90;99.90;;;;;;4431031;32;20529;-76
2021/04/10 11:06:04;;;;;;;0.32;0.32;;;10.00;99.90;;;;;;4429905;32;20094;-77
2021/04/10 11:08:30;;;;;;;0.62;0.62;;;10.20;99.90;;;;;;4430399;32;20053;-76
2021/04/10 11:10:57;;;;;;;0.45;0.45;;;10.30;99.90;;;;;;4420450;32;20121;-77
2021/04/10 11:13:24;;;;;;;0.68;0.68;;;10.20;99.90;;;;;;4414750;32;20066;-76
2021/04/10 11:15:50;;;;;;;0.68;0.65;;;10.30;99.90;;;;;;4415768;32;20128;-76
2021/04/10 11:18:32;;;;;;;0.50;0.50;;;10.30;99.90;;;;;;4414877;32;20240;-77
2021/04/10 11:21:20;;;;;;;0.50;0.50;;;10.20;99.90;;;;;;4414386;32;20085;-76
2021/04/10 11:24:06;;;;;;;0.50;0.50;;;10.20;99.90;;;;;;4402655;32;20070;-76
2021/04/10 11:26:39;;;;;;;0.62;0.60;;;10.10;99.90;;;;;;4414299;32;20416;-76
2021/04/10 11:29:44;;;;;;;0.45;0.45;;;10.00;99.90;;;;;;4414484;32;20065;-76
2021/04/10 11:32:31;;;;;;;0.50;0.50;;;9.90;99.90;;;;;;4394997;32;20471;-77
2021/04/10 11:35:05;;;;;;;0.50;0.50;;;9.80;99.90;;;;;;4402338;32;20086;-77
2021/04/10 11:37:34;;;;;;;1.65;0.62;;;9.90;99.90;;;;;;4414147;32;20201;-75
2021/04/10 11:40:03;;;;;;;1.17;1.08;;;9.90;99.90;;;;;;4406823;32;20073;-75
2021/04/10 11:42:39;;;;;;;0.50;0.50;;;9.90;99.90;;;;;;4413627;32;20062;-76
2021/04/10 11:45:07;;;;;;;0.50;0.50;;;9.90;99.90;;;;;;4414017;32;20416;-76
2021/04/10 11:47:35;;;;;;;2.30;1.25;;;10.10;99.90;;;;;;4412975;32;20062;-75
2021/04/10 11:50:21;;;;;;;0.43;0.30;;;10.10;99.90;;;;;;4413215;32;20421;-75
2021/04/10 11:52:48;;;;;;;1.65;0.90;;;9.90;99.90;;;;;;4412532;32;20051;-75
2021/04/10 11:55:17;;;;;;;0.30;0.30;;;10.00;99.90;;;;;;4412798;32;20062;-75
2021/04/10 11:57:44;;;;;;;0.82;0.80;;;10.20;99.90;;;;;;4413746;32;20484;-77
2021/04/10 12:00:13;;;;;;;0.57;0.57;;;10.40;99.90;;;;;;4414479;32;20062;-77
2021/04/10 12:02:42;;;;;;;19.40;0.80;;;10.40;99.90;;;;;;4413001;32;20569;-76
2021/04/10 12:05:26;;;;;;;1.27;0.62;;;10.40;99.90;;;;;;4413815;32;20143;-76
2021/04/10 12:08:11;;;;;;;0.50;0.50;;;10.40;99.90;;;;;;4413199;32;20091;-76
2021/04/10 12:10:43;;;;;;;1.20;1.10;;;10.50;99.90;;;;;;4419894;32;20130;-76
2021/04/10 12:13:10;;;;;;;0.43;0.43;;;10.40;99.90;;;;;;4422436;32;20062;-76
2021/04/10 12:15:38;;;;;;;0.80;0.70;;;10.40;99.90;;;;;;4415535;32;20281;-77
2021/04/10 12:18:05;;;;;;;0.30;0.30;;;10.30;99.90;;;;;;4420008;32;20073;-76
2021/04/10 12:20:32;;;;;;;0.40;0.40;;;10.10;99.90;;;;;;4424449;32;20531;-77
2021/04/10 12:22:58;;;;;;;1.42;1.08;;;10.10;99.90;;;;;;4428526;32;20073;-75
2021/04/10 12:25:24;;;;;;;0.60;0.60;;;10.10;99.90;;;;;;4428878;32;20586;-77
2021/04/10 12:27:49;;;;;;;0.52;0.52;;;10.10;99.90;;;;;;4428405;32;20065;-77
2021/04/10 12:30:16;;;;;;;0.45;0.45;;;10.10;99.90;;;;;;4429954;32;20069;-76
2021/04/10 12:32:42;;;;;;;1.73;1.15;;;10.10;99.90;;;;;;4428969;32;20070;-76
2021/04/10 12:35:08;;;;;;;0.95;0.60;;;10.10;99.90;;;;;;4428475;32;20073;-76
2021/04/10 12:37:34;;;;;;;0.40;0.40;;;10.10;99.90;;;;;;4429729;32;20360;-76
2021/04/10 12:40:00;;;;;;;3.25;1.55;;;10.10;99.90;;;;;;4429080;32;20088;-76
2021/04/10 12:42:26;;;;;;;0.60;0.60;;;10.00;99.90;;;;;;4429100;32;20069;-76
2021/04/10 12:44:51;;;;;;;0.75;0.75;;;10.00;99.90;;;;;;4428902;32;20086;-76
2021/04/10 12:47:19;;;;;;;0.30;0.30;;;9.90;99.90;;;;;;4428743;32;20098;-76
2021/04/10 12:49:46;;;;;;;1.37;0.77;;;9.90;99.90;;;;;;4428416;32;20119;-77
2021/04/10 12:52:11;;;;;;;2.37;1.20;;;9.80;99.90;;;;;;4427768;32;20135;-77
2021/04/10 12:54:38;;;;;;;0.47;0.47;;;9.70;99.90;;;;;;4427747;32;20133;-76
2021/04/10 12:57:05;;;;;;;0.52;0.52;;;9.70;99.90;;;;;;4428376;32;20567;-77
2021/04/10 12:59:31;;;;;;;2.08;0.50;;;9.70;99.90;;;;;;4428174;32;20075;-75
2021/04/10 13:01:57;;;;;;;0.70;0.70;;;9.70;99.90;;;;;;4429061;32;20069;-76
2021/04/10 13:04:24;;;;;;;0.77;0.68;;;9.90;99.90;;;;;;4427560;32;20078;-75
2021/04/10 13:06:50;;;;;;;0.40;0.40;;;9.90;99.90;;;;;;4429748;32;20525;-76